Time;durP1;ratioP1;P1;durP2;ratioP2;P2;SDS_P1;SDS_P2;PMS_P1;PMS_P2;Temp;Humidity;BMP_temperature;BMP_pressure;BME280_temperature;BME280_humidity;BME280_pressure;Samples;Min_cycle;Max_cycle;Signal;HPM_P1;HPM_P2
2023/11/19 00:00:57;;;;;;;16.25;4.47;;;14.50;71.60;;;;;;5023549;28;20164;-73
2023/11/19 00:03:23;;;;;;;23.55;7.05;;;14.50;71.60;;;;;;5019299;28;20048;-73
2023/11/19 00:05:50;;;;;;;20.35;5.07;;;14.50;71.60;;;;;;5026753;28;20029;-73
2023/11/19 00:08:16;;;;;;;20.70;5.38;;;14.50;71.70;;;;;;5013398;28;20045;-74
2023/11/19 00:10:42;;;;;;;22.25;5.38;;;14.50;71.70;;;;;;5024192;28;20029;-74
2023/11/19 00:13:10;;;;;;;18.38;4.68;;;14.50;71.80;;;;;;5023636;28;20453;-74
2023/11/19 00:15:36;;;;;;;29.00;5.35;;;14.40;71.60;;;;;;5020449;28;20030;-73
2023/11/19 00:18:04;;;;;;;18.98;5.45;;;14.50;71.80;;;;;;5034534;28;20038;-74
2023/11/19 00:20:30;;;;;;;22.42;4.70;;;14.40;71.70;;;;;;5020408;28;20052;-72
2023/11/19 00:22:56;;;;;;;23.63;6.45;;;14.40;71.60;;;;;;5022914;28;20462;-73
2023/11/19 00:25:22;;;;;;;22.15;5.75;;;14.40;71.70;;;;;;5029772;28;20679;-73
2023/11/19 00:27:48;;;;;;;17.55;4.90;;;14.40;71.70;;;;;;5023066;28;20790;-73
2023/11/19 00:30:15;;;;;;;25.58;6.22;;;14.40;71.70;;;;;;5031035;28;20116;-73
2023/11/19 00:32:41;;;;;;;17.65;6.82;;;14.40;71.70;;;;;;5025733;28;20033;-73
2023/11/19 00:35:10;;;;;;;23.95;5.85;;;14.40;71.80;;;;;;5013581;28;20037;-73
2023/11/19 00:37:36;;;;;;;20.33;5.47;;;14.40;71.80;;;;;;5023787;28;20063;-73
2023/11/19 00:40:06;;;;;;;23.63;4.95;;;14.40;71.90;;;;;;5021633;28;20045;-73
2023/11/19 00:42:32;;;;;;;21.50;5.75;;;14.30;71.70;;;;;;5011840;28;20042;-73
2023/11/19 00:44:58;;;;;;;14.80;4.70;;;14.30;71.70;;;;;;5026824;28;20041;-73
2023/11/19 00:47:25;;;;;;;19.52;5.95;;;14.30;71.80;;;;;;5039889;28;20041;-73
2023/11/19 00:49:51;;;;;;;21.33;5.05;;;14.20;71.70;;;;;;5026659;28;20036;-73
2023/11/19 00:52:18;;;;;;;19.83;4.15;;;14.30;71.90;;;;;;5022176;28;20041;-73
2023/11/19 00:54:44;;;;;;;25.42;7.28;;;14.20;71.70;;;;;;5041906;28;20037;-73
2023/11/19 00:57:10;;;;;;;23.80;6.07;;;14.20;71.80;;;;;;5028258;28;20037;-73
2023/11/19 00:59:37;;;;;;;20.45;5.88;;;14.20;71.80;;;;;;5032925;28;20048;-74
2023/11/19 01:02:06;;;;;;;18.98;4.72;;;14.20;71.80;;;;;;5021158;28;20179;-73
2023/11/19 01:04:35;;;;;;;22.75;5.63;;;14.10;71.70;;;;;;5020408;28;20095;-74
2023/11/19 01:07:03;;;;;;;20.52;5.68;;;14.10;71.70;;;;;;5022936;28;20033;-73
2023/11/19 01:09:34;;;;;;;19.92;6.22;;;14.10;71.70;;;;;;5027117;28;20045;-74
2023/11/19 01:12:01;;;;;;;22.20;6.50;;;14.10;71.80;;;;;;5028184;28;20096;-73
2023/11/19 01:14:28;;;;;;;21.13;5.90;;;14.10;71.80;;;;;;5027899;28;20119;-73
2023/11/19 01:16:54;;;;;;;23.05;6.03;;;14.10;71.90;;;;;;5041757;28;20448;-73
2023/11/19 01:19:22;;;;;;;19.92;5.00;;;14.10;71.90;;;;;;5025728;28;20095;-73
2023/11/19 01:21:48;;;;;;;19.25;4.40;;;14.10;71.90;;;;;;5031749;28;20044;-74
2023/11/19 01:24:14;;;;;;;20.40;5.10;;;14.00;71.80;;;;;;5019389;28;20033;-73
2023/11/19 01:26:45;;;;;;;21.23;5.90;;;14.00;71.80;;;;;;5023175;28;20120;-74
2023/11/19 01:29:15;;;;;;;18.90;4.80;;;14.00;71.90;;;;;;5022634;28;20117;-74
2023/11/19 01:31:41;;;;;;;20.52;4.50;;;14.00;71.90;;;;;;5017329;28;20041;-73
2023/11/19 01:34:08;;;;;;;21.02;4.90;;;14.00;72.00;;;;;;5016269;28;20076;-73
2023/11/19 01:36:35;;;;;;;16.75;5.18;;;14.00;72.00;;;;;;5038018;28;20075;-73
2023/11/19 01:39:01;;;;;;;17.95;4.55;;;14.00;72.00;;;;;;5019872;28;20264;-73
2023/11/19 01:41:27;;;;;;;20.73;5.15;;;14.00;72.00;;;;;;5017789;28;20046;-74
2023/11/19 01:43:54;;;;;;;21.45;4.90;;;13.90;71.90;;;;;;5018613;28;20244;-74
2023/11/19 01:46:20;;;;;;;18.90;4.55;;;14.00;72.10;;;;;;5037692;28;20033;-74
2023/11/19 01:48:46;;;;;;;19.85;5.00;;;14.00;72.10;;;;;;5019190;28;20552;-74
2023/11/19 01:51:16;;;;;;;16.60;4.53;;;13.90;71.90;;;;;;5027456;28;20112;-74
2023/11/19 01:53:43;;;;;;;19.65;5.57;;;13.90;71.90;;;;;;5017850;28;20033;-74
2023/11/19 01:56:11;;;;;;;25.88;6.93;;;13.90;72.00;;;;;;5053586;28;20037;-74
2023/11/19 01:58:40;;;;;;;18.42;4.85;;;13.90;71.90;;;;;;5021420;28;20040;-73
2023/11/19 02:01:07;;;;;;;21.70;4.32;;;13.90;72.00;;;;;;5014859;28;20041;-74
2023/11/19 02:03:33;;;;;;;19.20;4.18;;;13.90;72.00;;;;;;5016647;28;20091;-74
2023/11/19 02:06:00;;;;;;;24.73;5.32;;;13.90;72.00;;;;;;5016005;28;20568;-74
2023/11/19 02:08:26;;;;;;;19.30;4.22;;;13.90;72.00;;;;;;5020347;28;20033;-74
2023/11/19 02:10:56;;;;;;;19.30;4.55;;;13.90;72.10;;;;;;5052184;28;20034;-73
2023/11/19 02:13:22;;;;;;;18.75;4.28;;;13.90;72.10;;;;;;5036418;28;20033;-73
2023/11/19 02:15:48;;;;;;;27.67;7.07;;;13.90;72.10;;;;;;5019427;28;20507;-74
2023/11/19 02:18:28;;;;;;;17.35;4.93;;;13.80;71.90;;;;;;5021863;28;20564;-74
2023/11/19 02:20:56;;;;;;;20.67;5.82;;;13.90;72.20;;;;;;5006011;28;20367;-73
2023/11/19 02:23:24;;;;;;;22.17;4.90;;;13.80;72.00;;;;;;5034001;28;20094;-74
2023/11/19 02:25:59;;;;;;;21.55;6.15;;;13.80;72.10;;;;;;5027926;28;20034;-74
2023/11/19 02:28:26;;;;;;;16.88;3.92;;;13.80;72.10;;;;;;5025946;28;20100;-74
2023/11/19 02:30:53;;;;;;;17.73;5.20;;;13.80;72.10;;;;;;5018804;28;20083;-74
2023/11/19 02:33:20;;;;;;;21.00;4.55;;;13.80;72.10;;;;;;5022926;28;20409;-74
2023/11/19 02:35:47;;;;;;;30.88;6.28;;;13.80;72.10;;;;;;5025938;28;20523;-74
2023/11/19 02:38:17;;;;;;;17.88;5.00;;;13.80;72.10;;;;;;5035860;28;20447;-75
2023/11/19 02:40:43;;;;;;;20.27;4.45;;;13.80;72.10;;;;;;5028232;28;20060;-74
2023/11/19 02:43:10;;;;;;;16.95;5.35;;;13.80;72.20;;;;;;5021108;28;20425;-74
2023/11/19 02:45:36;;;;;;;17.60;4.57;;;13.80;72.10;;;;;;5026389;28;20207;-74
2023/11/19 02:48:03;;;;;;;18.00;5.20;;;13.90;72.30;;;;;;5030022;28;20667;-74
2023/11/19 02:50:32;;;;;;;23.13;4.75;;;13.90;72.30;;;;;;5029128;28;20036;-74
2023/11/19 02:52:58;;;;;;;17.60;4.78;;;13.90;72.30;;;;;;5059011;28;20165;-73
2023/11/19 02:55:27;;;;;;;20.60;4.88;;;13.90;72.30;;;;;;5025521;28;20038;-73
2023/11/19 02:57:53;;;;;;;18.02;4.43;;;13.90;72.30;;;;;;5024318;28;20057;-72
2023/11/19 03:00:24;;;;;;;17.38;4.75;;;13.90;72.30;;;;;;5025805;28;20288;-73
2023/11/19 03:03:09;;;;;;;18.67;4.35;;;13.90;72.30;;;;;;5014110;28;20111;-73
2023/11/19 03:05:36;;;;;;;15.95;4.38;;;13.90;72.30;;;;;;5022098;28;20037;-73
2023/11/19 03:08:02;;;;;;;25.15;6.47;;;13.90;72.30;;;;;;5031387;28;20119;-73
2023/11/19 03:10:29;;;;;;;13.73;3.50;;;13.90;72.30;;;;;;5027222;28;20025;-73
2023/11/19 03:12:56;;;;;;;22.45;7.15;;;13.80;72.10;;;;;;5018761;28;20037;-73
2023/11/19 03:15:23;;;;;;;19.00;4.97;;;13.90;72.30;;;;;;5025559;28;20519;-74
2023/11/19 03:17:50;;;;;;;17.35;4.43;;;13.90;72.20;;;;;;5064070;28;20038;-73
2023/11/19 03:20:20;;;;;;;17.73;4.45;;;13.90;72.30;;;;;;5023508;28;20034;-73
2023/11/19 03:22:47;;;;;;;34.00;5.95;;;13.90;72.20;;;;;;5030399;28;20044;-73
2023/11/19 03:25:14;;;;;;;20.60;5.55;;;13.80;72.00;;;;;;5023994;28;20125;-74
2023/11/19 03:27:44;;;;;;;20.75;5.35;;;13.90;72.20;;;;;;5021292;28;20543;-74
2023/11/19 03:30:10;;;;;;;17.73;4.30;;;13.80;72.00;;;;;;5024852;28;20027;-73
2023/11/19 03:32:36;;;;;;;21.67;4.93;;;13.80;72.10;;;;;;5024068;28;20040;-75
2023/11/19 03:35:09;;;;;;;20.25;6.07;;;13.80;72.10;;;;;;5024568;28;20029;-74
2023/11/19 03:37:36;;;;;;;18.88;4.30;;;13.90;72.30;;;;;;5029741;28;20415;-74
2023/11/19 03:40:04;;;;;;;17.63;4.35;;;13.90;72.30;;;;;;5017046;28;20053;-74
2023/11/19 03:42:31;;;;;;;24.15;3.92;;;13.80;72.10;;;;;;5024738;28;20116;-74
2023/11/19 03:44:58;;;;;;;16.88;5.72;;;13.80;72.10;;;;;;5026053;28;20025;-75
2023/11/19 03:47:24;;;;;;;19.08;4.65;;;13.90;72.40;;;;;;5034344;28;20045;-74
2023/11/19 03:49:51;;;;;;;22.00;5.75;;;13.90;72.40;;;;;;5021172;28;20032;-75
2023/11/19 03:52:18;;;;;;;16.95;4.50;;;13.90;72.50;;;;;;5024867;28;20040;-74
2023/11/19 03:54:45;;;;;;;22.05;5.35;;;13.90;72.50;;;;;;5023586;28;20100;-74
2023/11/19 03:57:13;;;;;;;19.60;4.85;;;13.90;72.60;;;;;;5028407;28;20079;-73
2023/11/19 03:59:39;;;;;;;21.40;4.15;;;13.90;72.60;;;;;;5024789;28;20033;-74
2023/11/19 04:02:06;;;;;;;16.27;3.80;;;13.90;72.60;;;;;;5023288;28;20066;-73
2023/11/19 04:04:33;;;;;;;10.82;3.85;;;13.90;72.60;;;;;;5017470;28;20099;-74
2023/11/19 04:07:02;;;;;;;18.05;4.53;;;13.90;72.70;;;;;;5024609;28;20033;-73
2023/11/19 04:09:29;;;;;;;19.05;4.85;;;13.90;72.70;;;;;;5023759;28;20107;-73
2023/11/19 04:11:56;;;;;;;15.43;4.75;;;13.80;72.50;;;;;;5052544;28;20064;-74
2023/11/19 04:14:23;;;;;;;18.10;6.60;;;13.90;72.80;;;;;;5023126;28;20030;-73
2023/11/19 04:16:49;;;;;;;16.10;3.50;;;13.80;72.60;;;;;;5009332;28;20037;-73
2023/11/19 04:19:15;;;;;;;16.77;3.88;;;13.80;72.60;;;;;;5029862;28;20030;-74
2023/11/19 04:21:42;;;;;;;17.70;3.55;;;13.80;72.70;;;;;;5022844;28;20029;-73
2023/11/19 04:24:13;;;;;;;15.95;4.35;;;13.80;72.80;;;;;;5033833;28;20068;-73
2023/11/19 04:26:42;;;;;;;15.38;4.57;;;13.80;72.80;;;;;;5057453;28;20025;-74
2023/11/19 04:29:11;;;;;;;18.15;4.18;;;13.80;72.80;;;;;;5031766;28;20033;-74
2023/11/19 04:31:37;;;;;;;18.50;3.92;;;13.80;72.90;;;;;;5039216;28;20481;-73
2023/11/19 04:34:02;;;;;;;14.95;3.25;;;13.80;72.90;;;;;;5022172;28;20028;-73
2023/11/19 04:36:29;;;;;;;15.95;3.95;;;13.70;72.80;;;;;;5032374;28;20048;-74
2023/11/19 04:38:55;;;;;;;14.05;3.88;;;13.80;73.00;;;;;;5029202;28;20620;-74
2023/11/19 04:41:21;;;;;;;17.85;4.75;;;13.70;72.80;;;;;;5030709;28;20064;-74
2023/11/19 04:43:47;;;;;;;22.40;5.90;;;13.70;72.90;;;;;;5027913;28;20021;-74
2023/11/19 04:46:13;;;;;;;17.52;5.55;;;13.70;72.90;;;;;;5025421;28;20485;-73
2023/11/19 04:48:40;;;;;;;15.13;3.60;;;13.70;72.90;;;;;;5029977;28;20029;-74
2023/11/19 04:51:06;;;;;;;21.42;4.90;;;13.70;73.00;;;;;;5027373;28;20025;-73
2023/11/19 04:53:32;;;;;;;19.23;5.03;;;13.70;73.00;;;;;;5029978;28;20535;-74
2023/11/19 04:55:59;;;;;;;20.88;4.72;;;13.70;73.00;;;;;;5027150;28;20021;-74
2023/11/19 04:58:24;;;;;;;17.55;4.28;;;13.70;73.10;;;;;;5028933;28;20051;-74
2023/11/19 05:00:50;;;;;;;17.77;5.25;;;13.70;73.00;;;;;;5025137;28;20036;-73
2023/11/19 05:03:17;;;;;;;17.15;5.13;;;13.70;73.10;;;;;;5024995;28;20038;-74
2023/11/19 05:05:43;;;;;;;24.13;5.32;;;13.70;73.10;;;;;;5033682;28;20026;-73
2023/11/19 05:08:09;;;;;;;19.95;4.72;;;13.70;73.20;;;;;;5035420;28;20036;-74
2023/11/19 05:10:36;;;;;;;22.08;5.82;;;13.70;73.20;;;;;;5026527;28;20026;-74
2023/11/19 05:13:02;;;;;;;18.13;4.47;;;13.60;73.10;;;;;;5021638;28;20029;-73
2023/11/19 05:15:28;;;;;;;13.40;4.60;;;13.60;73.10;;;;;;5034532;28;20031;-74
2023/11/19 05:17:55;;;;;;;19.27;4.93;;;13.60;73.10;;;;;;5029770;28;20026;-73
2023/11/19 05:20:21;;;;;;;18.25;4.40;;;13.60;73.20;;;;;;5042011;28;20045;-73
2023/11/19 05:22:47;;;;;;;16.90;4.80;;;13.60;73.20;;;;;;5024313;28;20620;-73
2023/11/19 05:25:13;;;;;;;21.23;5.03;;;13.60;73.20;;;;;;5027466;28;20025;-74
2023/11/19 05:27:39;;;;;;;19.10;4.20;;;13.50;73.10;;;;;;5023998;28;20412;-74
2023/11/19 05:30:10;;;;;;;15.00;5.40;;;13.60;73.30;;;;;;5030544;28;20029;-74
2023/11/19 05:32:37;;;;;;;18.63;4.20;;;13.50;73.20;;;;;;5025081;28;20393;-74
2023/11/19 05:35:04;;;;;;;15.02;4.15;;;13.50;73.20;;;;;;5021798;28;20017;-74
2023/11/19 05:37:29;;;;;;;15.88;3.78;;;13.50;73.20;;;;;;5029018;28;20161;-74
2023/11/19 05:39:55;;;;;;;17.45;4.10;;;13.50;73.20;;;;;;5026134;28;20359;-74
2023/11/19 05:42:21;;;;;;;17.23;4.28;;;13.50;73.30;;;;;;5023732;28;20105;-74
2023/11/19 05:44:47;;;;;;;21.95;4.88;;;13.50;73.30;;;;;;5026596;28;20029;-75
2023/11/19 05:47:13;;;;;;;15.57;3.60;;;13.50;73.30;;;;;;5022111;28;20025;-75
2023/11/19 05:49:39;;;;;;;21.73;4.20;;;13.50;73.40;;;;;;5026863;28;20035;-74
2023/11/19 05:52:07;;;;;;;21.50;4.82;;;13.50;73.40;;;;;;5030202;28;20135;-75
2023/11/19 05:54:37;;;;;;;16.75;4.60;;;13.50;73.40;;;;;;5024463;28;20021;-75
2023/11/19 05:57:05;;;;;;;14.73;4.00;;;13.50;73.40;;;;;;5032061;28;20108;-74
2023/11/19 05:59:33;;;;;;;14.75;4.28;;;13.50;73.40;;;;;;5024981;28;20120;-74
2023/11/19 06:02:02;;;;;;;19.40;4.32;;;13.40;73.20;;;;;;5024592;28;20452;-73
2023/11/19 06:04:29;;;;;;;14.10;4.03;;;13.40;73.20;;;;;;5035466;28;20025;-73
2023/11/19 06:06:55;;;;;;;18.77;4.20;;;13.40;73.20;;;;;;5025950;28;20437;-74
2023/11/19 06:09:22;;;;;;;17.63;4.80;;;13.40;73.30;;;;;;5025337;28;20033;-73
2023/11/19 06:11:52;;;;;;;17.15;3.38;;;13.40;73.30;;;;;;5022107;28;20116;-73
2023/11/19 06:14:19;;;;;;;16.02;4.05;;;13.40;73.30;;;;;;5021549;28;20044;-74
2023/11/19 06:16:45;;;;;;;16.98;5.00;;;13.40;73.30;;;;;;5029381;28;20032;-74
2023/11/19 06:19:11;;;;;;;15.77;5.55;;;13.40;73.30;;;;;;5021003;28;20033;-73
2023/11/19 06:21:37;;;;;;;15.77;4.00;;;13.40;73.30;;;;;;5022703;28;20055;-74
2023/11/19 06:24:03;;;;;;;16.35;4.32;;;13.40;73.30;;;;;;5038985;28;20037;-73
2023/11/19 06:26:29;;;;;;;20.00;4.93;;;13.40;73.30;;;;;;5036815;28;20025;-73
2023/11/19 06:28:55;;;;;;;17.95;4.07;;;13.40;73.30;;;;;;5027875;28;20440;-72
2023/11/19 06:31:24;;;;;;;14.25;3.85;;;13.40;73.30;;;;;;5027482;28;20106;-73
2023/11/19 06:33:50;;;;;;;15.25;3.38;;;13.40;73.30;;;;;;5020444;28;20425;-73
2023/11/19 06:36:18;;;;;;;14.43;3.72;;;13.40;73.80;;;;;;5024384;28;20034;-73
2023/11/19 06:38:44;;;;;;;13.02;2.80;;;13.40;73.30;;;;;;5023417;28;20116;-74
2023/11/19 06:41:10;;;;;;;16.02;3.35;;;13.40;73.40;;;;;;5017809;28;20469;-73
2023/11/19 06:43:37;;;;;;;15.18;3.58;;;13.40;73.40;;;;;;5049029;28;20535;-73
2023/11/19 06:46:05;;;;;;;15.60;4.78;;;13.40;73.40;;;;;;5023190;28;20415;-74
2023/11/19 06:48:34;;;;;;;13.75;4.43;;;13.40;73.40;;;;;;5017262;28;20205;-73
2023/11/19 06:51:00;;;;;;;16.98;3.58;;;13.40;73.40;;;;;;5023228;28;20037;-73
2023/11/19 06:53:27;;;;;;;13.45;4.13;;;13.30;73.20;;;;;;5027140;28;20040;-73
2023/11/19 06:55:54;;;;;;;16.85;4.13;;;13.30;73.20;;;;;;5025337;28;20429;-75
2023/11/19 06:58:20;;;;;;;12.57;3.42;;;13.40;73.40;;;;;;5020235;28;20029;-75
2023/11/19 07:00:47;;;;;;;13.93;3.28;;;13.40;73.40;;;;;;5034602;28;20036;-73
2023/11/19 07:03:14;;;;;;;15.73;4.00;;;13.40;73.40;;;;;;5020045;28;20319;-75
2023/11/19 07:05:40;;;;;;;19.77;4.25;;;13.40;73.40;;;;;;5036013;28;20040;-74
2023/11/19 07:08:09;;;;;;;15.73;5.60;;;13.30;73.20;;;;;;5024561;28;20085;-74
2023/11/19 07:10:36;;;;;;;16.42;5.13;;;13.30;73.20;;;;;;5020712;28;20041;-74
2023/11/19 07:13:02;;;;;;;14.30;3.20;;;13.40;73.50;;;;;;5019072;28;20112;-74
2023/11/19 07:15:28;;;;;;;16.70;4.68;;;13.30;73.30;;;;;;5020196;28;20037;-75
2023/11/19 07:17:54;;;;;;;13.23;3.38;;;13.40;73.50;;;;;;5035904;28;20371;-74
2023/11/19 07:20:21;;;;;;;14.38;3.55;;;13.30;73.30;;;;;;5033559;28;20034;-75
2023/11/19 07:22:47;;;;;;;13.13;3.97;;;13.30;73.30;;;;;;5017775;28;20037;-75
2023/11/19 07:25:13;;;;;;;13.32;3.20;;;13.30;73.30;;;;;;5016721;28;20056;-73
2023/11/19 07:27:40;;;;;;;13.15;3.50;;;13.30;73.40;;;;;;5030682;28;20039;-75
2023/11/19 07:30:07;;;;;;;10.32;2.92;;;13.30;73.40;;;;;;5015284;28;20033;-76
2023/11/19 07:32:33;;;;;;;14.43;3.33;;;13.30;73.40;;;;;;5022392;28;20504;-75
2023/11/19 07:35:06;;;;;;;15.38;3.05;;;13.30;73.40;;;;;;5018125;28;20033;-75
2023/11/19 07:37:33;;;;;;;14.98;3.58;;;13.30;73.40;;;;;;5020315;28;20136;-75
2023/11/19 07:39:59;;;;;;;14.82;4.15;;;13.30;73.50;;;;;;5021613;28;20029;-75
2023/11/19 07:42:26;;;;;;;19.00;4.93;;;13.30;73.50;;;;;;5020172;28;20135;-74
2023/11/19 07:44:55;;;;;;;14.52;3.10;;;13.30;73.50;;;;;;5021591;28;20049;-76
2023/11/19 07:47:23;;;;;;;14.32;2.78;;;13.30;74.10;;;;;;5020150;28;20064;-75
2023/11/19 07:49:50;;;;;;;15.18;3.03;;;13.30;73.90;;;;;;5018366;28;20025;-76
2023/11/19 07:52:16;;;;;;;11.82;3.42;;;13.40;74.40;;;;;;5018398;28;20034;-74
2023/11/19 07:54:43;;;;;;;37.95;6.40;;;13.50;74.80;;;;;;5033131;28;20029;-73
2023/11/19 07:57:10;;;;;;;41.88;9.75;;;13.50;74.80;;;;;;5030773;28;20481;-74
2023/11/19 07:59:36;;;;;;;27.15;8.30;;;13.60;75.00;;;;;;5025029;28;20075;-75
2023/11/19 08:02:03;;;;;;;25.88;5.57;;;13.60;75.40;;;;;;5012587;28;20140;-76
2023/11/19 08:04:30;;;;;;;18.73;4.93;;;13.70;75.40;;;;;;5016504;28;20029;-76
2023/11/19 08:06:56;;;;;;;16.17;4.80;;;13.80;75.70;;;;;;5036449;28;21300;-78
2023/11/19 08:09:23;;;;;;;22.85;4.28;;;13.80;75.70;;;;;;5025647;28;20307;-78
2023/11/19 08:11:49;;;;;;;15.00;4.10;;;13.90;76.00;;;;;;5014739;28;20033;-76
2023/11/19 08:14:15;;;;;;;13.40;4.45;;;14.00;76.30;;;;;;5016758;28;20121;-76
2023/11/19 08:16:42;;;;;;;21.15;5.03;;;14.00;76.30;;;;;;5016771;28;20116;-75
2023/11/19 08:19:11;;;;;;;20.95;4.68;;;14.00;76.10;;;;;;5021876;28;20026;-76
2023/11/19 08:21:37;;;;;;;17.20;3.50;;;14.10;76.20;;;;;;5014305;28;20056;-76
2023/11/19 08:24:04;;;;;;;21.33;5.13;;;14.10;76.00;;;;;;5021522;28;20295;-75
2023/11/19 08:26:30;;;;;;;17.88;4.55;;;14.10;75.90;;;;;;5020311;28;20055;-75
2023/11/19 08:28:57;;;;;;;17.60;5.00;;;14.10;75.80;;;;;;5024230;28;21113;-75
2023/11/19 08:31:25;;;;;;;22.23;5.55;;;14.10;75.70;;;;;;5015612;28;20543;-76
2023/11/19 08:33:51;;;;;;;19.88;5.47;;;14.10;75.60;;;;;;5018407;28;20357;-75
2023/11/19 08:36:18;;;;;;;15.23;4.35;;;14.10;75.50;;;;;;5022574;28;20030;-76
2023/11/19 08:38:44;;;;;;;13.43;3.78;;;14.10;75.50;;;;;;5025696;28;20504;-76
2023/11/19 08:41:11;;;;;;;13.07;4.30;;;14.10;75.30;;;;;;5017246;28;20053;-76
2023/11/19 08:43:37;;;;;;;16.60;4.28;;;14.10;75.20;;;;;;5024652;28;20341;-77
2023/11/19 08:46:09;;;;;;;17.83;4.30;;;14.10;75.20;;;;;;5017697;28;20033;-78
2023/11/19 08:48:35;;;;;;;12.38;5.00;;;14.10;75.00;;;;;;5030948;28;20559;-76
2023/11/19 08:51:01;;;;;;;20.90;5.03;;;14.10;74.90;;;;;;5020489;28;20108;-77
2023/11/19 08:53:28;;;;;;;14.45;4.55;;;14.10;74.80;;;;;;5027686;28;20025;-77
2023/11/19 08:55:54;;;;;;;19.45;4.40;;;14.10;74.70;;;;;;5018766;28;20080;-77
2023/11/19 08:58:21;;;;;;;15.05;3.80;;;14.10;74.60;;;;;;5020510;28;20031;-77
2023/11/19 09:00:47;;;;;;;18.15;4.38;;;14.20;74.60;;;;;;5017798;28;20032;-77
2023/11/19 09:03:17;;;;;;;19.60;5.25;;;14.20;74.50;;;;;;5021904;28;20037;-77
2023/11/19 09:05:46;;;;;;;14.52;3.10;;;14.20;74.50;;;;;;5030593;28;20033;-77
2023/11/19 09:08:13;;;;;;;21.05;5.30;;;14.20;74.30;;;;;;5019029;28;20152;-77
2023/11/19 09:10:39;;;;;;;21.33;5.72;;;14.30;74.40;;;;;;5022893;28;20033;-77
2023/11/19 09:13:05;;;;;;;11.88;3.88;;;14.20;74.10;;;;;;5025485;28;20069;-78
2023/11/19 09:15:34;;;;;;;19.52;4.63;;;14.30;74.20;;;;;;5050224;28;20038;-76
2023/11/19 09:18:01;;;;;;;16.63;3.55;;;14.30;74.10;;;;;;5024256;28;20033;-76
2023/11/19 09:20:27;;;;;;;12.45;3.38;;;14.30;74.00;;;;;;5047988;28;20036;-76
2023/11/19 09:22:56;;;;;;;15.43;4.10;;;14.40;74.10;;;;;;5027069;28;20045;-76
2023/11/19 09:25:29;;;;;;;16.25;3.65;;;14.40;74.50;;;;;;5028145;28;20030;-77
2023/11/19 09:27:55;;;;;;;14.68;3.97;;;14.40;73.90;;;;;;5030284;28;20123;-77
2023/11/19 09:30:22;;;;;;;15.50;3.42;;;14.40;73.80;;;;;;5021849;28;20049;-77
2023/11/19 09:32:49;;;;;;;11.73;3.40;;;14.40;73.70;;;;;;5029251;28;20041;-77
2023/11/19 09:35:16;;;;;;;12.02;3.70;;;14.40;73.60;;;;;;5026689;28;20104;-79
2023/11/19 09:37:43;;;;;;;16.58;3.85;;;14.40;73.50;;;;;;5027763;28;20701;-79
2023/11/19 09:40:11;;;;;;;12.32;3.00;;;14.40;73.50;;;;;;5029288;28;20041;-81
2023/11/19 09:42:46;;;;;;;12.98;5.03;;;14.40;73.50;;;;;;5039446;28;20036;-78
2023/11/19 09:45:17;;;;;;;15.77;4.78;;;14.50;73.60;;;;;;5020918;28;20624;-78
2023/11/19 09:47:45;;;;;;;13.93;3.38;;;14.40;73.40;;;;;;5029285;28;20025;-77
2023/11/19 09:50:19;;;;;;;17.40;6.32;;;14.40;73.30;;;;;;5026407;28;20037;-79
2023/11/19 09:52:47;;;;;;;14.30;3.92;;;14.40;73.30;;;;;;5022316;28;20112;-78
2023/11/19 09:55:14;;;;;;;13.45;3.83;;;14.40;73.30;;;;;;5021360;28;20034;-76
2023/11/19 09:57:45;;;;;;;11.50;3.42;;;14.40;73.30;;;;;;5029999;28;20034;-75
2023/11/19 10:00:15;;;;;;;9.32;2.78;;;14.40;73.20;;;;;;5026059;28;20033;-76
2023/11/19 10:02:46;;;;;;;12.70;3.42;;;14.40;73.20;;;;;;5019900;28;20048;-77
2023/11/19 10:05:13;;;;;;;14.10;3.35;;;14.40;73.20;;;;;;5012049;28;20033;-76
2023/11/19 10:07:39;;;;;;;15.25;3.70;;;14.40;73.10;;;;;;5017697;28;20508;-76
2023/11/19 10:10:07;;;;;;;15.63;4.38;;;14.40;73.10;;;;;;5022018;28;20057;-75
2023/11/19 10:12:33;;;;;;;13.70;3.53;;;14.50;73.20;;;;;;5022472;28;20045;-76
2023/11/19 10:15:00;;;;;;;17.13;3.47;;;14.50;73.10;;;;;;5019838;28;20037;-76
2023/11/19 10:17:34;;;;;;;13.05;3.70;;;14.50;73.00;;;;;;5021377;28;20035;-76
2023/11/19 10:20:01;;;;;;;17.05;4.20;;;14.50;73.00;;;;;;5052799;28;20037;-75
2023/11/19 10:22:28;;;;;;;17.90;4.97;;;14.40;72.70;;;;;;5008639;28;20088;-76
2023/11/19 10:24:54;;;;;;;14.93;4.45;;;14.50;72.90;;;;;;5024255;28;20405;-76
2023/11/19 10:27:20;;;;;;;11.98;3.38;;;14.50;72.80;;;;;;5021741;28;20069;-76
2023/11/19 10:29:47;;;;;;;12.13;4.03;;;14.50;72.70;;;;;;5013613;28;20032;-76
2023/11/19 10:32:17;;;;;;;19.77;3.70;;;14.50;72.70;;;;;;5023666;28;20090;-76
2023/11/19 10:34:43;;;;;;;11.63;2.70;;;14.50;72.60;;;;;;5046736;28;20033;-75
2023/11/19 10:37:29;;;;;;;13.25;3.30;;;14.60;72.70;;;;;;5038269;28;20090;-76
2023/11/19 10:39:56;;;;;;;17.17;3.35;;;14.60;72.60;;;;;;5022542;28;20149;-76
2023/11/19 10:42:23;;;;;;;11.13;3.85;;;14.60;72.60;;;;;;5033830;28;20060;-77
2023/11/19 10:44:53;;;;;;;8.25;3.63;;;14.70;73.20;;;;;;5038870;28;20719;-75
2023/11/19 10:47:20;;;;;;;14.50;3.80;;;14.70;72.60;;;;;;5020885;28;20136;-75
2023/11/19 10:49:47;;;;;;;10.98;3.13;;;14.70;72.60;;;;;;5027468;28;20026;-75
2023/11/19 10:52:19;;;;;;;13.68;4.07;;;14.70;73.00;;;;;;5019474;28;20033;-75
2023/11/19 10:54:50;;;;;;;9.33;2.83;;;14.70;72.40;;;;;;5023999;28;20037;-75
2023/11/19 10:57:23;;;;;;;9.65;2.42;;;14.80;72.50;;;;;;5019437;28;20103;-75
2023/11/19 11:00:01;;;;;;;9.68;2.88;;;14.80;72.50;;;;;;5020287;28;20686;-75
2023/11/19 11:02:30;;;;;;;8.80;2.42;;;14.80;72.40;;;;;;5019185;28;20132;-74
2023/11/19 11:04:58;;;;;;;6.40;2.05;;;14.80;72.40;;;;;;5015493;28;20718;-75
2023/11/19 11:07:26;;;;;;;7.88;2.58;;;14.80;72.30;;;;;;5017285;28;20037;-74
2023/11/19 11:09:53;;;;;;;10.45;2.45;;;14.80;72.30;;;;;;5017937;28;20033;-73
2023/11/19 11:12:23;;;;;;;8.05;2.65;;;14.80;72.20;;;;;;5032758;28;20033;-75
2023/11/19 11:14:54;;;;;;;7.15;3.03;;;14.80;72.20;;;;;;5032969;28;20039;-75
2023/11/19 11:17:25;;;;;;;8.65;2.47;;;14.80;72.20;;;;;;5023064;28;20060;-75
2023/11/19 11:19:52;;;;;;;10.40;2.35;;;14.80;72.10;;;;;;5017740;28;20116;-75
2023/11/19 11:22:21;;;;;;;10.45;3.20;;;14.80;72.10;;;;;;5034168;28;20068;-76
2023/11/19 11:25:21;;;;;;;7.18;2.30;;;14.80;72.00;;;;;;5017006;28;20075;-76
2023/11/19 11:28:16;;;;;;;8.70;2.58;;;14.90;72.20;;;;;;5025185;28;20731;-75
2023/11/19 11:30:54;;;;;;;6.85;2.78;;;14.90;72.10;;;;;;5012826;28;20036;-74
2023/11/19 11:33:40;;;;;;;7.80;2.58;;;14.90;72.10;;;;;;5012943;28;20025;-75
2023/11/19 11:36:19;;;;;;;7.70;2.33;;;14.90;72.00;;;;;;5015877;28;20029;-75
2023/11/19 11:38:49;;;;;;;11.65;2.75;;;14.90;72.00;;;;;;5016294;28;20033;-76
2023/11/19 11:41:23;;;;;;;8.63;2.50;;;14.90;72.00;;;;;;5016603;28;20106;-75
2023/11/19 11:43:51;;;;;;;9.75;2.60;;;14.90;72.10;;;;;;5017922;28;20666;-75
2023/11/19 11:46:32;;;;;;;7.90;2.28;;;14.90;72.10;;;;;;5016931;28;20174;-76
2023/11/19 11:49:03;;;;;;;10.38;3.35;;;14.90;72.10;;;;;;5018450;28;20045;-75
2023/11/19 11:51:44;;;;;;;5.65;1.88;;;14.90;72.10;;;;;;5018156;28;20128;-75
2023/11/19 11:54:20;;;;;;;7.25;2.47;;;14.90;72.10;;;;;;5020994;28;20116;-76
2023/11/19 11:57:11;;;;;;;7.40;2.30;;;14.90;72.10;;;;;;5016122;28;20596;-74
2023/11/19 11:59:42;;;;;;;6.80;2.80;;;14.90;72.20;;;;;;5021706;28;20045;-75
2023/11/19 12:02:10;;;;;;;6.53;2.47;;;14.90;72.20;;;;;;5020120;28;20037;-77
2023/11/19 12:04:37;;;;;;;6.18;2.13;;;14.90;72.20;;;;;;5016820;28;20040;-76
2023/11/19 12:07:18;;;;;;;6.72;1.98;;;14.90;72.20;;;;;;5014009;28;20033;-75
2023/11/19 12:09:51;;;;;;;5.88;1.65;;;14.90;72.30;;;;;;5019310;28;20064;-76
2023/11/19 12:12:22;;;;;;;5.30;2.30;;;14.90;72.20;;;;;;5012489;28;20087;-75
2023/11/19 12:14:58;;;;;;;4.22;1.55;;;14.90;72.20;;;;;;5016252;28;20033;-75
2023/11/19 12:17:39;;;;;;;7.72;1.83;;;14.90;72.20;;;;;;5017557;28;20132;-76
2023/11/19 12:20:11;;;;;;;8.10;1.67;;;14.90;72.20;;;;;;5026824;28;20053;-76
2023/11/19 12:22:39;;;;;;;8.63;2.78;;;14.90;72.20;;;;;;5005086;28;20409;-76
2023/11/19 12:25:11;;;;;;;6.15;1.40;;;14.90;72.20;;;;;;5025025;28;20029;-74
2023/11/19 12:27:45;;;;;;;4.40;1.83;;;14.90;72.20;;;;;;5034918;28;20042;-75
2023/11/19 12:30:12;;;;;;;5.63;1.77;;;14.90;72.20;;;;;;5011777;28;20654;-75
2023/11/19 12:32:43;;;;;;;8.45;1.80;;;14.90;72.20;;;;;;5020089;28;20037;-75
2023/11/19 12:35:12;;;;;;;93.70;58.38;;;14.90;72.20;;;;;;5011886;28;20029;-75
2023/11/19 12:37:46;;;;;;;67.07;42.00;;;15.00;72.40;;;;;;5025250;28;20104;-75
2023/11/19 12:40:15;;;;;;;61.00;41.38;;;15.00;72.40;;;;;;5019319;28;20211;-75
2023/11/19 12:42:42;;;;;;;55.08;37.75;;;15.00;72.40;;;;;;5027133;28;20548;-75